createdAt,value
2018-07-19T00:02:09.008Z,48.24
2018-07-19T00:04:38.556Z,48.28
2018-07-19T00:07:08.205Z,51.88
2018-07-19T00:09:37.757Z,51.74
2018-07-19T00:12:07.520Z,50.04
2018-07-19T00:14:37.272Z,49.83
2018-07-19T00:17:07.295Z,48.70
2018-07-19T00:19:36.861Z,49.87
2018-07-19T00:22:06.602Z,49.50
2018-07-19T00:24:36.311Z,49.70
2018-07-19T00:27:05.865Z,50.50
2018-07-19T00:29:35.650Z,51.48
2018-07-19T00:32:05.204Z,50.86
2018-07-19T00:34:34.750Z,50.26
2018-07-19T00:37:04.489Z,49.91
2018-07-19T00:39:34.333Z,50.83
2018-07-19T00:42:03.884Z,49.63
2018-07-19T00:44:33.479Z,51.24
2018-07-19T00:47:03.163Z,51.79
2018-07-19T00:49:32.672Z,50.79
2018-07-19T00:52:02.255Z,50.68
2018-07-19T00:54:31.825Z,50.78
2018-07-19T00:57:01.520Z,50.41
2018-07-19T00:59:31.071Z,50.98
2018-07-19T01:02:00.708Z,52.18
2018-07-19T01:04:30.156Z,53.43
2018-07-19T01:06:59.738Z,53.38
2018-07-19T01:09:29.286Z,54.44
2018-07-19T01:11:58.903Z,54.53
2018-07-19T01:14:28.605Z,54.31
2018-07-19T01:16:58.283Z,55.29
2018-07-19T01:19:28.078Z,53.63
2018-07-19T01:21:57.626Z,51.29
2018-07-19T01:24:27.126Z,50.58
2018-07-19T01:26:56.787Z,50.16
2018-07-19T01:29:26.342Z,49.26
2018-07-19T01:31:55.864Z,49.22
2018-07-19T01:34:25.556Z,49.13
2018-07-19T01:36:55.259Z,49.21
2018-07-19T01:39:24.659Z,49.64
2018-07-19T01:42:34.268Z,51.10
2018-07-19T01:45:04.024Z,52.09
2018-07-19T01:47:33.659Z,54.02
2018-07-19T01:50:03.415Z,55.94
2018-07-19T01:52:32.981Z,56.38
2018-07-19T01:55:02.638Z,56.80
2018-07-19T01:57:32.109Z,56.50
2018-07-19T02:00:01.609Z,57.69
2018-07-19T02:02:31.190Z,57.95
2018-07-19T02:05:00.778Z,56.92
2018-07-19T02:07:30.347Z,55.13
2018-07-19T02:09:59.864Z,54.76
2018-07-19T02:12:29.342Z,57.96
2018-07-19T02:14:58.849Z,56.44
2018-07-19T02:17:28.395Z,54.79
2018-07-19T02:19:58.259Z,55.35
2018-07-19T02:22:27.991Z,54.70
2018-07-19T02:24:57.578Z,56.46
2018-07-19T02:27:27.152Z,56.67
2018-07-19T02:29:56.700Z,56.05
2018-07-19T02:32:26.442Z,56.88
2018-07-19T02:34:56.022Z,55.13
2018-07-19T02:37:25.658Z,54.06
2018-07-19T02:39:55.215Z,54.04
2018-07-19T02:42:24.694Z,54.76
2018-07-19T02:44:54.249Z,54.07
2018-07-19T02:47:23.864Z,53.89
2018-07-19T02:49:53.412Z,54.02
2018-07-19T02:52:23.071Z,52.00
2018-07-19T02:54:52.533Z,53.90
2018-07-19T02:57:22.075Z,54.59
2018-07-19T02:59:51.647Z,54.56
2018-07-19T03:02:21.365Z,52.97
2018-07-19T03:04:50.886Z,54.58
2018-07-19T03:07:20.524Z,53.98
2018-07-19T03:09:50.129Z,52.90
2018-07-19T03:12:19.666Z,52.88
2018-07-19T03:14:49.329Z,52.28
2018-07-19T03:17:18.855Z,53.06
2018-07-19T03:19:48.512Z,52.43
2018-07-19T03:22:18.481Z,52.82
2018-07-19T03:24:48.248Z,50.54
2018-07-19T03:27:17.828Z,50.32
2018-07-19T03:29:47.271Z,51.64
2018-07-19T03:32:16.964Z,50.77
2018-07-19T03:34:46.448Z,50.33
2018-07-19T03:37:16.006Z,48.04
2018-07-19T03:39:45.658Z,47.85
2018-07-19T03:42:15.106Z,48.50
2018-07-19T03:44:44.791Z,47.35
2018-07-19T03:47:14.741Z,46.44
2018-07-19T03:49:44.391Z,45.86
2018-07-19T03:52:14.005Z,45.64
2018-07-19T03:54:43.643Z,45.43
2018-07-19T03:57:13.307Z,46.42
2018-07-19T03:59:42.853Z,46.74
2018-07-19T04:02:12.738Z,45.48
2018-07-19T04:04:42.363Z,49.97
2018-07-19T04:07:12.094Z,54.28
2018-07-19T04:09:41.727Z,56.56
2018-07-19T04:12:11.515Z,54.48
2018-07-19T04:14:41.121Z,52.71
2018-07-19T04:17:10.891Z,49.02
2018-07-19T04:19:40.640Z,51.58
2018-07-19T04:22:10.330Z,50.12
2018-07-19T04:24:40.135Z,54.66
2018-07-19T04:27:09.739Z,53.63
2018-07-19T04:29:39.359Z,52.43
2018-07-19T04:32:08.848Z,51.77
2018-07-19T04:34:38.385Z,51.60
2018-07-19T04:37:08.063Z,51.37
2018-07-19T04:39:37.770Z,50.18
2018-07-19T04:42:07.669Z,49.38
2018-07-19T04:44:37.405Z,51.94
2018-07-19T04:47:06.943Z,51.21
2018-07-19T04:49:36.792Z,51.52
2018-07-19T04:52:06.412Z,51.42
2018-07-19T04:54:36.078Z,51.17
2018-07-19T04:57:05.660Z,51.01
2018-07-19T04:59:35.253Z,46.48
2018-07-19T05:02:04.925Z,49.35
2018-07-19T05:04:34.591Z,48.02
2018-07-19T05:07:04.102Z,48.66
2018-07-19T05:09:33.711Z,47.83
2018-07-19T05:12:03.352Z,42.72
2018-07-19T05:14:32.907Z,44.37
2018-07-19T05:17:02.492Z,37.56
2018-07-19T05:19:32.004Z,38.30
2018-07-19T05:22:01.575Z,38.55
2018-07-19T05:24:31.222Z,42.07
2018-07-19T05:27:01.127Z,41.58
2018-07-19T05:29:30.689Z,39.32
2018-07-19T05:32:00.402Z,36.24
2018-07-19T05:34:30.223Z,38.85
2018-07-19T05:36:59.812Z,40.07
2018-07-19T05:39:29.781Z,39.43
2018-07-19T05:41:59.331Z,38.60
2018-07-19T05:44:28.860Z,36.44
2018-07-19T05:46:58.610Z,38.81
2018-07-19T05:49:28.112Z,38.64
2018-07-19T05:51:57.921Z,37.33
2018-07-19T05:54:27.923Z,38.01
2018-07-19T05:56:57.718Z,36.96
2018-07-19T05:59:27.185Z,34.56
2018-07-19T06:01:56.780Z,35.08
2018-07-19T06:04:26.490Z,36.59
2018-07-19T06:06:55.886Z,34.25
2018-07-19T06:09:25.849Z,35.52
2018-07-19T06:11:55.403Z,35.43
2018-07-19T06:14:25.023Z,36.94
2018-07-19T06:16:54.772Z,37.00
2018-07-19T06:19:24.465Z,36.59
2018-07-19T06:21:54.078Z,37.65
2018-07-19T06:24:24.544Z,36.77
2018-07-19T06:26:54.243Z,37.12
2018-07-19T06:29:24.916Z,36.22
2018-07-19T06:31:54.459Z,36.55
2018-07-19T06:34:24.151Z,38.38
2018-07-19T06:36:53.746Z,37.66
2018-07-19T06:39:23.556Z,36.84
2018-07-19T06:41:53.155Z,37.46
2018-07-19T06:44:22.751Z,37.88
2018-07-19T06:46:52.402Z,38.46
2018-07-19T06:49:22.644Z,36.28
2018-07-19T06:51:52.457Z,36.38
2018-07-19T06:54:22.991Z,35.02
2018-07-19T06:56:52.680Z,34.64
2018-07-19T06:59:22.643Z,34.65
2018-07-19T07:01:52.418Z,34.47
2018-07-19T07:04:21.871Z,33.40
2018-07-19T07:06:52.013Z,33.39
2018-07-19T07:09:21.569Z,33.40
2018-07-19T07:11:51.182Z,33.29
2018-07-19T07:14:20.857Z,33.12
2018-07-19T07:16:50.537Z,31.45
2018-07-19T07:19:20.119Z,34.07
2018-07-19T07:21:49.691Z,33.89
2018-07-19T07:24:19.349Z,30.94
2018-07-19T07:26:48.873Z,31.87
2018-07-19T07:29:18.580Z,29.55
2018-07-19T07:31:48.876Z,29.01
2018-07-19T07:34:18.545Z,28.01
2018-07-19T07:36:48.083Z,29.43
2018-07-19T07:39:17.821Z,30.84
2018-07-19T07:41:47.428Z,29.53
2018-07-19T07:44:17.129Z,31.79
2018-07-19T07:46:46.641Z,32.90
2018-07-19T07:49:17.055Z,31.91
2018-07-19T07:51:46.678Z,32.96
2018-07-19T07:54:16.337Z,33.71
2018-07-19T07:56:46.125Z,32.77
2018-07-19T07:59:16.537Z,31.57
2018-07-19T08:01:46.235Z,31.10
2018-07-19T08:04:15.952Z,33.76
2018-07-19T08:06:45.722Z,30.96
2018-07-19T08:09:15.395Z,32.08
2018-07-19T08:11:44.907Z,31.09
2018-07-19T08:14:14.555Z,32.07
2018-07-19T08:16:44.108Z,31.65
2018-07-19T08:19:13.777Z,32.90
2018-07-19T08:21:43.574Z,31.55
2018-07-19T08:24:13.363Z,31.85
2018-07-19T08:26:42.934Z,33.17
2018-07-19T08:29:12.652Z,32.51
2018-07-19T09:44:31.926Z,29.05
2018-07-19T09:47:01.706Z,28.59
2018-07-19T09:49:46.023Z,29.12
2018-07-19T09:52:16.432Z,28.47
2018-07-19T09:54:54.791Z,27.64
2018-07-19T09:57:25.228Z,28.58
2018-07-19T09:59:55.851Z,29.06
2018-07-19T10:02:25.843Z,27.43
2018-07-19T10:04:55.869Z,28.23
2018-07-19T10:07:25.577Z,27.58
2018-07-19T10:09:55.424Z,27.60
2018-07-19T10:12:25.135Z,28.04
2018-07-19T10:14:54.965Z,29.22
2018-07-19T10:17:24.701Z,29.16
2018-07-19T10:19:54.423Z,30.25
2018-07-19T10:22:24.107Z,31.00
2018-07-19T10:24:54.443Z,31.41
2018-07-19T10:27:24.131Z,32.90
2018-07-19T10:29:57.317Z,33.60
2018-07-19T10:32:27.912Z,33.90
2018-07-19T10:34:58.075Z,33.58
2018-07-19T10:37:28.627Z,32.73
2018-07-19T10:40:00.413Z,34.14
2018-07-19T10:42:30.862Z,33.67
2018-07-19T10:45:00.830Z,33.14
2018-07-19T10:47:30.696Z,34.71
2018-07-19T10:50:01.379Z,33.37
2018-07-19T10:52:30.978Z,31.46
2018-07-19T10:55:00.776Z,32.20
2018-07-19T10:57:31.350Z,29.59
2018-07-19T11:00:02.328Z,29.83
2018-07-19T11:02:32.759Z,31.05
2018-07-19T11:05:03.265Z,32.80
2018-07-19T11:07:33.764Z,32.32
2018-07-19T11:10:05.703Z,34.12
2018-07-19T11:12:36.067Z,33.54
2018-07-19T11:15:06.450Z,33.56
2018-07-19T11:17:37.018Z,35.59
2018-07-19T11:20:09.508Z,33.40
2018-07-19T11:22:39.887Z,35.61
2018-07-19T11:25:10.490Z,33.78
2018-07-19T11:27:41.112Z,33.63
2018-07-19T11:30:12.305Z,35.43
2018-07-19T11:32:42.709Z,34.96
2018-07-19T11:35:15.868Z,35.48
2018-07-19T11:37:46.346Z,34.93
2018-07-19T11:40:19.252Z,34.45
2018-07-19T11:42:49.291Z,34.15
2018-07-19T12:09:32.297Z,34.67
2018-07-19T12:12:02.020Z,33.40
2018-07-19T12:14:31.810Z,34.11
2018-07-19T12:17:01.473Z,34.30
2018-07-19T12:19:32.194Z,33.92
2018-07-19T12:22:01.884Z,32.22
2018-07-19T12:24:31.712Z,33.16
2018-07-19T12:27:01.574Z,32.01
2018-07-19T12:29:31.904Z,30.67
2018-07-19T12:32:01.650Z,30.98
2018-07-19T12:34:31.458Z,30.46
2018-07-19T12:37:01.280Z,30.81
2018-07-19T12:39:32.253Z,29.59
2018-07-19T12:42:02.864Z,28.94
2018-07-19T12:44:32.749Z,28.29
2018-07-19T12:47:02.436Z,28.88
2018-07-19T12:49:33.089Z,29.02
2018-07-19T12:52:03.083Z,26.46
2018-07-19T12:54:32.818Z,27.78
2018-07-19T12:57:07.512Z,28.11
2018-07-19T12:59:39.109Z,28.46
2018-07-19T13:02:09.373Z,29.55
2018-07-19T13:04:42.258Z,31.02
2018-07-19T13:07:13.491Z,32.63
2018-07-19T13:09:45.361Z,32.18
2018-07-19T13:12:15.223Z,32.99
2018-07-19T13:14:45.070Z,33.81
2018-07-19T13:17:14.830Z,33.45
2018-07-19T13:19:46.696Z,33.84
2018-07-19T13:22:16.594Z,32.89
2018-07-19T13:24:47.775Z,33.03
2018-07-19T13:27:17.748Z,32.90
2018-07-19T13:29:48.618Z,32.51
2018-07-19T13:32:18.465Z,32.82
2018-07-19T13:34:48.300Z,31.85
2018-07-19T13:37:18.040Z,33.09
2018-07-19T13:39:48.550Z,33.33
2018-07-19T13:42:18.274Z,34.46
2018-07-19T13:44:48.592Z,33.47
2018-07-19T13:47:18.239Z,33.20
2018-07-19T13:49:49.081Z,34.18
2018-07-19T13:52:21.137Z,32.69
2018-07-19T13:54:51.232Z,34.12
2018-07-19T13:57:20.943Z,32.64
2018-07-19T13:59:51.644Z,34.34
2018-07-19T14:02:21.519Z,35.72
2018-07-19T14:04:51.272Z,34.98
2018-07-19T14:07:21.050Z,36.11
2018-07-19T14:09:51.312Z,36.59
2018-07-19T14:12:21.126Z,34.96
2018-07-19T14:14:50.954Z,35.09
2018-07-19T14:17:20.935Z,35.62
2018-07-19T14:19:50.670Z,36.94
2018-07-19T14:22:20.476Z,34.81
2018-07-19T14:24:54.581Z,36.50
2018-07-19T14:27:24.371Z,35.96
2018-07-19T14:29:54.814Z,35.92
2018-07-19T14:32:24.568Z,36.47
2018-07-19T14:34:54.375Z,35.63
2018-07-19T14:37:24.132Z,35.96
2018-07-19T14:39:53.873Z,35.90
2018-07-19T14:42:24.460Z,35.86
2018-07-19T14:44:54.173Z,36.46
2018-07-19T14:47:24.029Z,36.43
2018-07-19T14:49:54.684Z,35.71
2018-07-19T14:52:25.857Z,37.02
2018-07-19T14:54:56.275Z,36.00
2018-07-19T14:57:27.129Z,35.86
2018-07-19T14:59:58.688Z,35.92
2018-07-19T15:02:28.981Z,37.18
2018-07-19T15:04:59.616Z,37.13
2018-07-19T15:07:30.307Z,36.57
2018-07-19T15:10:01.536Z,34.46
2018-07-19T15:12:32.354Z,35.46
2018-07-19T15:15:02.933Z,35.48
2018-07-19T15:17:33.859Z,35.61
2018-07-19T15:20:04.882Z,36.84
2018-07-19T15:22:35.902Z,36.90
2018-07-19T15:25:06.426Z,36.95
2018-07-19T15:27:39.931Z,36.67
2018-07-19T15:30:10.915Z,35.60
2018-07-19T15:32:41.334Z,35.56
2018-07-19T15:35:13.162Z,34.00
2018-07-19T15:37:43.662Z,35.75
2018-07-19T15:43:10.662Z,34.33
2018-07-19T15:47:05.486Z,35.12
2018-07-19T15:49:39.448Z,36.75
2018-07-19T15:52:09.721Z,36.70
2018-07-19T15:54:40.627Z,36.24
2018-07-19T15:57:11.645Z,35.05
2018-07-19T15:59:42.793Z,36.30
2018-07-19T16:02:14.410Z,35.14
2018-07-19T16:04:45.943Z,35.22
2018-07-19T16:07:16.677Z,36.65
2018-07-19T16:09:47.407Z,37.97
2018-07-19T16:12:18.430Z,37.58
2018-07-19T16:14:48.841Z,38.36
2018-07-19T16:17:19.496Z,37.40
2018-07-19T16:19:50.116Z,38.60
2018-07-19T16:22:21.347Z,39.35
2018-07-19T16:24:51.589Z,39.80
2018-07-19T16:27:21.314Z,39.78
2018-07-19T16:29:51.774Z,39.75
2018-07-19T16:32:23.905Z,40.34
2018-07-19T16:34:54.290Z,39.18
2018-07-19T16:37:24.899Z,40.17
2018-07-19T16:39:55.492Z,40.82
2018-07-19T16:42:26.205Z,41.39
2018-07-19T16:44:56.994Z,41.28
2018-07-19T16:47:27.625Z,41.42
2018-07-19T16:49:58.184Z,41.35
2018-07-19T16:52:29.481Z,41.66
2018-07-19T16:54:59.197Z,42.48
2018-07-19T16:57:29.128Z,41.74
2018-07-19T16:59:58.722Z,41.73
2018-07-19T17:02:28.615Z,41.69
2018-07-19T17:04:58.290Z,40.71
2018-07-19T17:07:28.247Z,40.91
2018-07-19T17:09:58.075Z,40.32
2018-07-19T17:12:27.795Z,40.94
2018-07-19T17:14:57.649Z,40.58
2018-07-19T17:17:27.395Z,40.18
2018-07-19T17:19:57.217Z,40.53
2018-07-19T17:22:27.017Z,41.57
2018-07-19T17:24:56.798Z,42.68
2018-07-19T17:27:26.618Z,42.66
2018-07-19T17:29:56.918Z,42.01
2018-07-19T17:32:26.740Z,42.49
2018-07-19T17:34:56.498Z,42.33
2018-07-19T17:37:26.130Z,42.36
2018-07-19T17:39:55.837Z,42.00
2018-07-19T17:42:25.739Z,41.21
2018-07-19T17:44:55.658Z,43.51
2018-07-19T17:47:26.356Z,42.26
2018-07-19T17:49:56.117Z,42.48
2018-07-19T17:52:25.923Z,43.68
2018-07-19T17:54:55.758Z,42.98
2018-07-19T17:57:25.678Z,43.27
2018-07-19T17:59:56.100Z,43.05
2018-07-19T18:02:25.837Z,41.96
2018-07-19T18:04:56.213Z,41.63
2018-07-19T18:07:26.591Z,43.76
2018-07-19T18:09:56.447Z,42.96
2018-07-19T18:12:26.835Z,43.24
2018-07-19T18:14:58.315Z,43.76
2018-07-19T18:17:29.380Z,43.63
2018-07-19T18:19:59.286Z,45.63
2018-07-19T18:22:29.593Z,42.85
2018-07-19T18:24:59.297Z,44.16
2018-07-19T18:27:29.125Z,44.65
2018-07-19T18:29:58.693Z,45.90
2018-07-19T18:32:28.498Z,46.14
2018-07-19T18:34:58.378Z,47.12
2018-07-19T18:37:28.082Z,47.19
2018-07-19T18:39:57.929Z,46.88
2018-07-19T18:42:27.830Z,47.02
2018-07-19T18:44:57.382Z,47.82
2018-07-19T18:47:27.137Z,47.55
2018-07-19T18:49:57.333Z,47.33
2018-07-19T18:52:27.294Z,48.08
2018-07-19T18:54:57.153Z,48.09
2018-07-19T18:57:26.932Z,47.68
2018-07-19T18:59:56.646Z,47.18
2018-07-19T19:02:26.573Z,46.32
2018-07-19T19:04:56.307Z,46.14
2018-07-19T19:07:26.090Z,45.33
2018-07-19T19:09:55.840Z,46.77
2018-07-19T19:12:25.606Z,49.13
2018-07-19T19:14:55.360Z,49.55
2018-07-19T19:17:25.212Z,49.16
2018-07-19T19:19:55.012Z,49.12
2018-07-19T19:22:24.815Z,49.74
2018-07-19T19:24:54.604Z,50.12
2018-07-19T19:28:48.645Z,48.69
2018-07-19T19:31:18.667Z,50.42
2018-07-19T19:33:48.768Z,50.58
2018-07-19T19:36:18.550Z,50.29
2018-07-19T19:38:48.431Z,50.82
2018-07-19T19:41:19.241Z,50.34
2018-07-19T19:43:49.121Z,50.76
2018-07-19T19:46:19.090Z,51.07
2018-07-19T19:48:48.915Z,51.90
2018-07-19T19:51:19.894Z,51.98
2018-07-19T19:53:49.655Z,52.18
2018-07-19T19:56:19.411Z,51.12
2018-07-19T19:58:49.285Z,52.35
2018-07-19T20:01:19.713Z,51.55
2018-07-19T20:03:49.261Z,52.37
2018-07-19T20:06:19.183Z,52.21
2018-07-19T20:08:48.931Z,52.03
2018-07-19T20:11:18.764Z,52.98
2018-07-19T20:13:48.476Z,52.28
2018-07-19T20:16:18.279Z,53.05
2018-07-19T20:18:48.034Z,52.91
2018-07-19T20:21:17.859Z,53.49
2018-07-19T20:23:47.757Z,52.09
2018-07-19T20:26:17.541Z,52.95
2018-07-19T20:28:47.397Z,52.21
2018-07-19T20:31:17.223Z,52.89
2018-07-19T20:33:46.972Z,53.75
2018-07-19T20:36:16.705Z,53.13
